createdAt,value
2019-06-01T00:00:56.793Z,67.50
2019-06-01T00:03:26.254Z,67.60
2019-06-01T00:05:55.439Z,67.58
2019-06-01T00:08:24.646Z,67.58
2019-06-01T00:10:53.803Z,67.52
2019-06-01T00:13:22.993Z,67.52
2019-06-01T00:15:52.287Z,67.48
2019-06-01T00:18:21.436Z,67.36
2019-06-01T00:20:50.794Z,67.28
2019-06-01T00:23:19.960Z,67.26
2019-06-01T00:25:49.167Z,67.28
2019-06-01T00:28:18.347Z,67.31
2019-06-01T00:30:47.970Z,67.44
2019-06-01T00:33:17.306Z,67.62
2019-06-01T00:35:47.460Z,67.75
2019-06-01T00:38:16.619Z,67.82
2019-06-01T00:40:45.909Z,67.88
2019-06-01T00:43:15.207Z,67.96
2019-06-01T00:45:44.525Z,68.17
2019-06-01T00:48:13.773Z,68.30
2019-06-01T00:50:43.115Z,68.38
2019-06-01T00:53:12.387Z,68.47
2019-06-01T00:55:41.667Z,68.52
2019-06-01T00:58:10.840Z,68.59
2019-06-01T01:00:43.619Z,68.68
2019-06-01T01:03:11.017Z,68.81
2019-06-01T01:05:40.295Z,68.83
2019-06-01T01:08:09.472Z,68.92
2019-06-01T01:10:38.691Z,68.96
2019-06-01T01:13:15.095Z,69.03
2019-06-01T01:15:45.205Z,69.08
2019-06-01T01:18:14.447Z,69.12
2019-06-01T01:20:43.638Z,69.28
2019-06-01T01:23:12.874Z,69.30
2019-06-01T01:25:42.040Z,69.34
2019-06-01T01:28:11.233Z,69.33
2019-06-01T01:30:40.787Z,69.34
2019-06-01T01:33:09.967Z,69.35
2019-06-01T01:35:39.118Z,69.34
2019-06-01T01:38:08.332Z,69.31
2019-06-01T01:40:37.532Z,69.23
2019-06-01T01:43:06.719Z,69.25
2019-06-01T01:45:35.895Z,69.17
2019-06-01T01:48:05.092Z,69.18
2019-06-01T01:50:34.428Z,69.12
2019-06-01T01:53:03.608Z,69.16
2019-06-01T01:55:32.779Z,69.27
2019-06-01T01:58:01.948Z,69.39
2019-06-01T02:00:37.639Z,69.51
2019-06-01T02:03:07.422Z,69.69
2019-06-01T02:05:36.608Z,69.63
2019-06-01T02:08:06.814Z,69.64
2019-06-01T02:10:36.067Z,69.68
2019-06-01T02:13:05.821Z,69.72
2019-06-01T02:15:35.691Z,69.66
2019-06-01T02:18:05.535Z,69.90
2019-06-01T02:20:34.919Z,69.85
2019-06-01T02:23:04.233Z,69.85
2019-06-01T02:25:33.513Z,69.88
2019-06-01T02:28:03.379Z,69.92
2019-06-01T02:30:32.685Z,69.92
2019-06-01T02:33:02.407Z,69.94
2019-06-01T02:35:32.367Z,69.98
2019-06-01T02:38:03.136Z,69.99
2019-06-01T02:40:32.681Z,69.98
2019-06-01T02:43:03.725Z,70.05
2019-06-01T02:45:32.806Z,70.12
2019-06-01T02:48:03.769Z,70.11
2019-06-01T02:50:32.901Z,70.18
2019-06-01T02:53:03.526Z,70.16
2019-06-01T02:55:32.859Z,70.19
2019-06-01T02:58:02.460Z,70.30
2019-06-01T03:01:07.121Z,70.38
2019-06-01T03:03:36.238Z,70.34
2019-06-01T03:06:07.680Z,70.23
2019-06-01T03:08:38.440Z,70.28
2019-06-01T03:11:09.981Z,70.38
2019-06-01T03:13:42.228Z,70.47
2019-06-01T03:16:13.528Z,70.59
2019-06-01T03:18:44.716Z,70.65
2019-06-01T03:21:15.768Z,70.68
2019-06-01T03:23:46.551Z,70.80
2019-06-01T03:26:19.830Z,70.91
2019-06-01T03:28:52.228Z,70.82
2019-06-01T03:31:21.529Z,70.77
2019-06-01T03:33:50.797Z,70.64
2019-06-01T03:36:19.964Z,70.54
2019-06-01T03:38:50.064Z,70.54
2019-06-01T03:41:19.535Z,70.63
2019-06-01T03:43:48.735Z,70.83
2019-06-01T03:46:17.964Z,71.09
2019-06-01T03:48:47.186Z,71.31
2019-06-01T03:51:16.363Z,71.24
2019-06-01T03:53:45.547Z,71.36
2019-06-01T03:56:14.824Z,71.58
2019-06-01T03:58:44.022Z,71.60
2019-06-01T04:01:13.259Z,71.60
2019-06-01T04:03:42.419Z,71.63
2019-06-01T04:06:11.624Z,71.37
2019-06-01T04:08:40.816Z,71.40
2019-06-01T04:11:10.022Z,71.48
2019-06-01T04:13:39.197Z,71.36
2019-06-01T04:16:08.453Z,71.57
2019-06-01T04:18:37.766Z,71.68
2019-06-01T04:21:08.144Z,71.72
2019-06-01T04:23:37.448Z,71.86
2019-06-01T04:26:06.636Z,71.93
2019-06-01T04:28:35.814Z,72.06
2019-06-01T04:31:06.405Z,72.07
2019-06-01T04:33:35.699Z,72.26
2019-06-01T04:36:04.963Z,72.37
2019-06-01T04:38:34.179Z,72.35
2019-06-01T04:41:03.606Z,72.40
2019-06-01T04:43:32.805Z,72.47
2019-06-01T04:46:01.981Z,72.52
2019-06-01T04:48:31.198Z,72.67
2019-06-01T04:51:00.351Z,72.57
2019-06-01T04:53:29.551Z,73.18
2019-06-01T04:55:58.743Z,73.82
2019-06-01T04:58:27.935Z,73.52
2019-06-01T05:00:57.108Z,73.21
2019-06-01T05:03:26.298Z,73.18
2019-06-01T05:05:55.489Z,72.96
2019-06-01T05:08:24.696Z,72.69
2019-06-01T05:10:53.866Z,72.53
2019-06-01T05:13:23.065Z,72.21
2019-06-01T05:15:52.254Z,71.94
2019-06-01T05:18:21.429Z,71.88
2019-06-01T05:20:50.627Z,72.41
2019-06-01T05:23:19.822Z,72.86
2019-06-01T05:25:49.013Z,73.05
2019-06-01T05:28:18.275Z,73.33
2019-06-01T05:30:47.632Z,72.94
2019-06-01T05:33:31.074Z,72.59
2019-06-01T05:35:47.750Z,73.05
2019-06-01T05:38:16.937Z,72.84
2019-06-01T05:40:46.097Z,72.67
2019-06-01T05:43:18.918Z,73.02
2019-06-01T05:45:46.208Z,72.97
2019-06-01T05:48:22.821Z,72.87
2019-06-01T05:50:46.389Z,73.15
2019-06-01T05:53:16.729Z,71.93
2019-06-01T05:55:46.071Z,71.96
2019-06-01T05:58:15.376Z,72.69
2019-06-01T06:00:45.000Z,72.51
2019-06-01T06:03:17.757Z,72.49
2019-06-01T06:05:45.187Z,72.36
2019-06-01T06:08:14.591Z,71.47
2019-06-01T06:10:44.107Z,70.40
2019-06-01T06:13:13.440Z,69.15
2019-06-01T06:15:42.602Z,69.60
2019-06-01T06:18:11.810Z,69.85
2019-06-01T06:20:41.204Z,70.20
2019-06-01T06:23:10.382Z,70.53
2019-06-01T06:25:41.433Z,70.20
2019-06-01T06:28:10.707Z,70.01
2019-06-01T06:30:39.973Z,70.48
2019-06-01T06:33:09.148Z,69.05
2019-06-01T06:35:38.319Z,68.57
2019-06-01T06:38:07.505Z,68.68
2019-06-01T06:40:36.703Z,69.41
2019-06-01T06:43:18.709Z,69.13
2019-06-01T06:45:36.846Z,67.46
2019-06-01T06:48:06.055Z,67.62
2019-06-01T06:50:35.403Z,68.38
2019-06-01T06:53:04.661Z,68.22
2019-06-01T06:55:33.947Z,67.76
2019-06-01T06:58:03.154Z,67.52
2019-06-01T07:00:32.346Z,67.41
2019-06-01T07:03:01.562Z,66.89
2019-06-01T07:05:31.464Z,66.78
2019-06-01T07:08:00.738Z,66.36
2019-06-01T07:10:29.952Z,65.89
2019-06-01T07:12:59.149Z,65.87
2019-06-01T07:15:28.365Z,63.75
2019-06-01T07:17:57.532Z,64.67
2019-06-01T07:20:27.914Z,64.64
2019-06-01T07:22:57.095Z,62.84
2019-06-01T07:25:26.896Z,63.04
2019-06-01T07:27:56.115Z,62.50
2019-06-01T07:30:26.308Z,59.89
2019-06-01T07:32:55.767Z,60.19
2019-06-01T07:35:24.935Z,60.21
2019-06-01T07:37:54.130Z,58.94
2019-06-01T07:40:24.676Z,58.87
2019-06-01T07:42:54.141Z,59.68
2019-06-01T07:45:23.300Z,59.10
2019-06-01T07:47:52.519Z,59.55
2019-06-01T07:50:21.947Z,58.59
2019-06-01T07:52:51.265Z,56.14
2019-06-01T07:55:21.365Z,56.47
2019-06-01T07:57:50.833Z,57.11
2019-06-01T08:00:21.019Z,54.68
2019-06-01T08:02:51.178Z,55.03
2019-06-01T08:05:23.228Z,54.53
2019-06-01T08:07:51.389Z,55.24
2019-06-01T08:10:21.099Z,53.32
2019-06-01T08:12:51.513Z,53.05
2019-06-01T08:15:21.720Z,53.49
2019-06-01T08:17:51.184Z,53.88
2019-06-01T08:20:21.655Z,50.71
2019-06-01T08:22:51.294Z,51.12
2019-06-01T08:25:20.495Z,50.87
2019-06-01T08:27:49.672Z,51.05
2019-06-01T08:30:18.906Z,50.81
2019-06-01T08:32:48.369Z,49.38
2019-06-01T08:35:17.589Z,48.80
2019-06-01T08:37:46.803Z,48.32
2019-06-01T08:40:16.194Z,48.46
2019-06-01T08:42:45.388Z,48.06
2019-06-01T08:45:14.694Z,47.08
2019-06-01T08:47:43.866Z,44.17
2019-06-01T08:50:14.523Z,44.61
2019-06-01T08:52:43.720Z,44.02
2019-06-01T08:55:13.986Z,43.87
2019-06-01T08:57:43.202Z,44.89
2019-06-01T09:00:12.481Z,44.07
2019-06-01T09:02:41.751Z,43.77
2019-06-01T09:05:23.954Z,43.69
2019-06-01T09:07:42.048Z,43.50
2019-06-01T09:10:13.781Z,42.65
2019-06-01T09:12:42.975Z,42.47
2019-06-01T09:15:12.986Z,42.46
2019-06-01T09:17:42.397Z,41.64
2019-06-01T09:20:11.588Z,42.10
2019-06-01T09:22:40.786Z,42.39
2019-06-01T09:25:10.197Z,42.09
2019-06-01T09:27:39.383Z,42.24
2019-06-01T09:30:09.096Z,42.15
2019-06-01T09:32:38.280Z,42.21
2019-06-01T09:35:07.592Z,41.54
2019-06-01T09:37:36.883Z,41.74
2019-06-01T09:40:28.299Z,39.81
2019-06-01T09:42:58.204Z,40.94
2019-06-01T09:45:27.824Z,40.94
2019-06-01T09:47:57.231Z,40.00
2019-06-01T09:50:27.250Z,41.03
2019-06-01T09:52:56.578Z,40.14
2019-06-01T09:55:25.817Z,40.00
2019-06-01T09:57:55.132Z,39.88
2019-06-01T10:00:24.602Z,39.88
2019-06-01T10:02:53.838Z,39.76
2019-06-01T10:05:22.975Z,39.10
2019-06-01T10:07:52.174Z,38.93
2019-06-01T10:10:21.322Z,38.57
2019-06-01T10:12:50.498Z,38.36
2019-06-01T10:15:19.688Z,38.28
2019-06-01T10:17:48.941Z,38.30
2019-06-01T10:20:18.093Z,38.98
2019-06-01T10:22:47.335Z,37.82
2019-06-01T10:25:16.512Z,37.51
2019-06-01T10:27:45.732Z,37.92
2019-06-01T10:30:15.089Z,38.26
2019-06-01T10:32:44.323Z,38.17
2019-06-01T10:35:13.890Z,38.07
2019-06-01T10:37:43.153Z,37.69
2019-06-01T10:40:12.523Z,37.86
2019-06-01T10:42:41.941Z,38.67
2019-06-01T10:45:11.669Z,37.94
2019-06-01T10:47:42.024Z,37.40
2019-06-01T10:50:11.515Z,37.56
2019-06-01T10:52:40.675Z,37.48
2019-06-01T10:55:10.060Z,37.74
2019-06-01T10:57:40.529Z,38.01
2019-06-01T11:00:10.322Z,37.46
2019-06-01T11:02:40.704Z,37.50
2019-06-01T11:05:10.210Z,36.05
2019-06-01T11:07:39.396Z,35.44
2019-06-01T11:10:09.010Z,36.97
2019-06-01T11:12:39.099Z,36.76
2019-06-01T11:15:09.328Z,35.60
2019-06-01T11:17:39.262Z,35.92
2019-06-01T11:20:09.112Z,36.11
2019-06-01T11:22:39.493Z,36.14
2019-06-01T11:25:08.715Z,35.90
2019-06-01T11:27:37.948Z,35.74
2019-06-01T11:30:07.779Z,36.05
2019-06-01T11:32:39.593Z,35.38
2019-06-01T11:35:08.291Z,35.80
2019-06-01T11:37:38.427Z,34.89
2019-06-01T11:40:07.849Z,35.00
2019-06-01T11:42:37.127Z,34.51
2019-06-01T11:45:07.023Z,35.19
2019-06-01T11:47:36.790Z,35.26
2019-06-01T11:50:06.533Z,35.84
2019-06-01T11:52:36.979Z,34.65
2019-06-01T11:55:06.600Z,34.73
2019-06-01T11:57:35.773Z,36.67
2019-06-01T12:00:06.383Z,37.19
2019-06-01T12:02:35.640Z,36.15
2019-06-01T12:05:05.705Z,34.65
2019-06-01T12:07:35.688Z,35.21
2019-06-01T12:10:25.541Z,36.97
2019-06-01T12:12:54.726Z,35.98
2019-06-01T12:15:26.571Z,35.36
2019-06-01T12:17:54.842Z,35.31
2019-06-01T12:20:24.214Z,35.20
2019-06-01T12:22:53.387Z,34.62
2019-06-01T12:25:22.538Z,33.98
2019-06-01T12:27:51.717Z,34.22
2019-06-01T12:30:21.062Z,34.11
2019-06-01T12:32:50.281Z,34.08
2019-06-01T12:35:19.563Z,34.08
2019-06-01T12:38:04.794Z,33.37
2019-06-01T12:40:19.749Z,34.10
2019-06-01T12:42:48.919Z,34.10
2019-06-01T12:45:22.772Z,34.15
2019-06-01T12:47:55.347Z,33.35
2019-06-01T12:50:21.773Z,33.49
2019-06-01T12:52:50.913Z,33.38
2019-06-01T12:55:20.068Z,33.79
2019-06-01T12:57:49.430Z,32.75
2019-06-01T13:00:18.978Z,33.57
2019-06-01T13:02:56.281Z,33.71
2019-06-01T13:05:19.528Z,33.79
2019-06-01T13:07:59.851Z,33.24
2019-06-01T13:10:19.515Z,32.45
2019-06-01T13:12:49.391Z,33.23
2019-06-01T13:15:19.277Z,33.77
2019-06-01T13:17:49.435Z,31.96
2019-06-01T13:20:18.682Z,33.82
2019-06-01T13:22:47.827Z,32.40
2019-06-01T13:25:17.070Z,31.74
2019-06-01T13:27:46.468Z,33.16
2019-06-01T13:30:15.800Z,32.80
2019-06-01T13:32:46.374Z,32.22
2019-06-01T13:35:15.924Z,32.76
2019-06-01T13:37:45.154Z,34.95
2019-06-01T13:40:15.157Z,34.53
2019-06-01T13:42:44.889Z,34.32
2019-06-01T13:45:14.193Z,34.12
2019-06-01T13:47:43.498Z,33.91
2019-06-01T13:50:12.980Z,33.47
2019-06-01T13:52:42.174Z,33.31
2019-06-01T13:55:11.587Z,32.56
2019-06-01T13:57:40.712Z,31.44
2019-06-01T14:00:10.462Z,32.88
2019-06-01T14:02:39.595Z,33.49
2019-06-01T14:05:09.184Z,33.47
2019-06-01T14:07:38.300Z,33.03
2019-06-01T14:10:07.681Z,31.08
2019-06-01T14:12:36.799Z,32.07
2019-06-01T14:15:06.127Z,31.75
2019-06-01T14:17:35.324Z,31.24
2019-06-01T14:20:04.583Z,30.27
2019-06-01T14:22:33.744Z,29.75
2019-06-01T14:25:12.423Z,29.49
2019-06-01T14:27:33.736Z,31.25
2019-06-01T14:30:02.943Z,31.84
2019-06-01T14:32:32.180Z,31.55
2019-06-01T14:35:01.329Z,29.27
2019-06-01T14:37:30.434Z,29.44
2019-06-01T14:39:59.548Z,29.79
2019-06-01T14:42:28.736Z,31.07
2019-06-01T14:44:58.226Z,30.78
2019-06-01T14:47:27.436Z,31.14
2019-06-01T14:49:57.752Z,31.51
2019-06-01T14:52:27.131Z,32.56
2019-06-01T14:54:56.282Z,32.63
2019-06-01T14:57:25.518Z,31.66
2019-06-01T14:59:54.632Z,32.14
2019-06-01T15:02:23.763Z,31.17
2019-06-01T15:04:54.199Z,30.86
2019-06-01T15:07:23.355Z,30.44
2019-06-01T15:09:52.479Z,30.80
2019-06-01T15:12:21.600Z,30.74
2019-06-01T15:14:50.962Z,31.03
2019-06-01T15:17:20.053Z,30.98
2019-06-01T15:19:49.981Z,31.07
2019-06-01T15:22:19.280Z,31.04
2019-06-01T15:24:48.397Z,31.60
2019-06-01T15:27:17.527Z,31.36
2019-06-01T15:29:46.650Z,31.58
2019-06-01T15:32:15.788Z,31.02
2019-06-01T15:34:44.896Z,31.03
2019-06-01T15:37:14.032Z,31.03
2019-06-01T15:39:43.143Z,31.26
2019-06-01T15:42:12.268Z,31.35
2019-06-01T15:44:41.381Z,31.06
2019-06-01T15:47:10.509Z,30.78
2019-06-01T15:49:39.608Z,30.65
2019-06-01T15:52:08.728Z,30.95
2019-06-01T15:54:37.850Z,31.05
2019-06-01T15:57:06.968Z,31.36
2019-06-01T15:59:36.127Z,31.46
2019-06-01T16:02:05.348Z,31.46
2019-06-01T16:04:34.523Z,31.17
2019-06-01T16:07:03.634Z,31.42
2019-06-01T16:09:42.587Z,31.22
2019-06-01T16:12:03.805Z,31.64
2019-06-01T16:14:32.948Z,31.71
2019-06-01T16:17:02.863Z,31.57
2019-06-01T16:19:32.900Z,31.12
2019-06-01T16:22:02.626Z,31.66
2019-06-01T16:24:31.781Z,31.93
2019-06-01T16:27:00.918Z,32.17
2019-06-01T16:29:30.120Z,32.02
2019-06-01T16:32:00.663Z,32.24
2019-06-01T16:34:30.061Z,32.30
2019-06-01T16:36:59.233Z,32.09
2019-06-01T16:39:28.463Z,32.19
2019-06-01T16:41:57.746Z,32.62
2019-06-01T16:44:26.802Z,32.93
2019-06-01T16:46:55.939Z,32.87
2019-06-01T16:49:27.299Z,32.95
2019-06-01T16:51:58.991Z,32.81
2019-06-01T16:54:28.481Z,33.04
2019-06-01T16:56:58.034Z,32.74
2019-06-01T16:59:27.277Z,32.63
2019-06-01T17:01:56.627Z,32.81
2019-06-01T17:04:25.731Z,32.93
2019-06-01T17:06:54.834Z,32.79
2019-06-01T17:09:24.000Z,32.94
2019-06-01T17:11:53.110Z,32.79
2019-06-01T17:14:22.227Z,32.88
2019-06-01T17:16:51.423Z,33.05
2019-06-01T17:19:20.669Z,33.31
2019-06-01T17:21:49.783Z,33.07
2019-06-01T17:24:18.923Z,32.93
2019-06-01T17:26:48.062Z,32.97
2019-06-01T17:29:17.167Z,32.92
2019-06-01T17:31:54.322Z,33.12
2019-06-01T17:34:17.175Z,33.70
2019-06-01T17:36:46.294Z,33.49
2019-06-01T17:39:15.419Z,33.23
2019-06-01T17:41:44.713Z,33.32
2019-06-01T17:44:13.838Z,33.75
2019-06-01T17:46:52.911Z,33.96
2019-06-01T17:49:13.842Z,34.22
2019-06-01T17:51:43.024Z,34.78
2019-06-01T17:54:12.179Z,34.88
2019-06-01T17:56:41.440Z,35.71
2019-06-01T17:59:11.579Z,37.13
2019-06-01T18:01:42.480Z,38.31
2019-06-01T18:04:12.192Z,38.71
2019-06-01T18:06:41.437Z,39.02
2019-06-01T18:09:10.718Z,39.47
2019-06-01T18:11:39.829Z,39.93
2019-06-01T18:14:10.240Z,40.06
2019-06-01T18:16:39.446Z,40.49
2019-06-01T18:19:08.560Z,40.83
2019-06-01T18:21:37.714Z,40.77
2019-06-01T18:24:08.321Z,41.08
2019-06-01T18:26:37.700Z,41.36
2019-06-01T18:29:06.853Z,41.65
2019-06-01T18:31:36.006Z,42.15
2019-06-01T18:34:05.498Z,42.53
2019-06-01T18:36:34.873Z,42.89
2019-06-01T18:39:05.315Z,43.32
2019-06-01T18:41:34.470Z,44.01
2019-06-01T18:44:03.653Z,44.49
2019-06-01T18:46:32.756Z,44.86
2019-06-01T18:49:01.996Z,45.55
2019-06-01T18:51:31.296Z,45.75
2019-06-01T18:54:00.488Z,45.97
2019-06-01T18:56:29.663Z,46.47
2019-06-01T18:58:58.844Z,46.86
2019-06-01T19:01:28.002Z,47.07
2019-06-01T19:03:57.305Z,47.18
2019-06-01T19:06:26.498Z,47.67
2019-06-01T19:08:56.727Z,47.58
2019-06-01T19:11:35.483Z,47.62
2019-06-01T19:13:56.767Z,47.90
2019-06-01T19:16:25.944Z,47.93
2019-06-01T19:18:55.097Z,48.14
2019-06-01T19:21:24.273Z,48.39
2019-06-01T19:23:53.425Z,48.77
2019-06-01T19:26:22.598Z,48.91
2019-06-01T19:28:51.952Z,49.08
2019-06-01T19:31:21.096Z,49.43
2019-06-01T19:33:50.276Z,49.84
2019-06-01T19:36:19.660Z,49.93
2019-06-01T19:38:49.503Z,49.50
2019-06-01T19:41:18.660Z,49.83
2019-06-01T19:43:47.837Z,50.43
2019-06-01T19:46:18.020Z,51.56
2019-06-01T19:48:47.471Z,51.93
2019-06-01T19:51:16.783Z,52.18
2019-06-01T19:53:45.968Z,52.42
2019-06-01T19:56:15.133Z,52.72
2019-06-01T19:58:44.317Z,53.01
2019-06-01T20:01:14.205Z,53.31
2019-06-01T20:03:43.407Z,52.98
2019-06-01T20:06:12.835Z,52.91
2019-06-01T20:08:42.077Z,53.03
2019-06-01T20:11:13.138Z,52.97
2019-06-01T20:13:42.453Z,52.97
2019-06-01T20:16:12.336Z,52.99
2019-06-01T20:18:41.688Z,53.12
2019-06-01T20:21:11.753Z,53.35
2019-06-01T20:23:41.170Z,53.45
2019-06-01T20:26:11.248Z,53.64
2019-06-01T20:28:40.517Z,53.90
2019-06-01T20:31:09.671Z,54.40
2019-06-01T20:33:38.800Z,54.84
2019-06-01T20:36:07.948Z,55.13
2019-06-01T20:38:37.127Z,55.30
2019-06-01T20:41:06.312Z,55.45
2019-06-01T20:43:35.480Z,55.59
2019-06-01T20:46:04.741Z,55.69
2019-06-01T20:48:33.903Z,55.66
2019-06-01T20:51:03.096Z,55.76
2019-06-01T20:53:32.206Z,55.73
2019-06-01T20:56:01.439Z,55.88
2019-06-01T20:58:30.562Z,56.29
2019-06-01T21:00:59.754Z,56.71
2019-06-01T21:03:28.905Z,57.05
2019-06-01T21:05:58.088Z,57.29
2019-06-01T21:08:27.250Z,57.58
2019-06-01T21:10:56.449Z,57.74
2019-06-01T21:13:25.586Z,57.92
2019-06-01T21:15:54.770Z,57.95
2019-06-01T21:18:25.030Z,58.01
2019-06-01T21:20:54.409Z,58.18
2019-06-01T21:23:25.107Z,58.53
2019-06-01T21:25:54.482Z,58.65
2019-06-01T21:28:24.219Z,58.75
2019-06-01T21:30:54.799Z,58.88
2019-06-01T21:33:27.163Z,58.92
2019-06-01T21:35:54.790Z,58.94
2019-06-01T21:38:23.988Z,59.05
2019-06-01T21:40:53.156Z,59.25
2019-06-01T21:43:29.481Z,59.68
2019-06-01T21:45:53.410Z,59.85
2019-06-01T21:48:23.870Z,60.12
2019-06-01T21:50:53.638Z,60.13
2019-06-01T21:53:22.830Z,60.02
2019-06-01T21:55:52.084Z,59.92
2019-06-01T21:58:22.604Z,59.98
2019-06-01T22:00:51.743Z,60.06
2019-06-01T22:03:21.126Z,60.30
2019-06-01T22:05:50.314Z,60.41
2019-06-01T22:08:19.545Z,60.60
2019-06-01T22:10:48.735Z,60.78
2019-06-01T22:13:20.896Z,60.89
2019-06-01T22:15:48.819Z,61.00
2019-06-01T22:18:17.972Z,61.21
2019-06-01T22:20:47.290Z,61.27
2019-06-01T22:23:17.803Z,61.47
2019-06-01T22:25:47.077Z,61.66
2019-06-01T22:28:16.202Z,61.73
2019-06-01T22:30:45.356Z,61.68
2019-06-01T22:33:14.529Z,61.71
2019-06-01T22:35:43.692Z,61.92
2019-06-01T22:38:12.866Z,61.92
2019-06-01T22:40:42.014Z,62.10
2019-06-01T22:43:11.367Z,62.38
2019-06-01T22:45:40.624Z,62.52
2019-06-01T22:48:09.925Z,62.48
2019-06-01T22:50:39.125Z,62.54
2019-06-01T22:53:08.305Z,62.53
2019-06-01T22:55:37.503Z,62.48
2019-06-01T22:58:06.672Z,62.46
2019-06-01T23:00:35.861Z,62.61
2019-06-01T23:03:04.986Z,62.67
2019-06-01T23:05:34.108Z,62.76
2019-06-01T23:08:03.299Z,63.07
2019-06-01T23:10:35.420Z,63.22
2019-06-01T23:13:03.346Z,63.33
2019-06-01T23:15:32.472Z,63.31
2019-06-01T23:18:01.589Z,63.66
2019-06-01T23:20:32.173Z,63.72
2019-06-01T23:23:01.393Z,63.79
2019-06-01T23:25:30.798Z,63.94
2019-06-01T23:27:59.916Z,63.91
2019-06-01T23:30:30.196Z,63.97
2019-06-01T23:32:59.475Z,63.95
2019-06-01T23:35:28.642Z,63.95
2019-06-01T23:37:57.760Z,63.99
2019-06-01T23:40:26.899Z,63.97
2019-06-01T23:42:56.026Z,64.03
2019-06-01T23:45:25.177Z,64.06
2019-06-01T23:47:54.333Z,64.21
2019-06-01T23:50:23.481Z,64.27
2019-06-01T23:52:52.643Z,64.46
2019-06-01T23:55:21.769Z,64.47
2019-06-01T23:57:50.917Z,64.54
